createdAt,value
2023-07-06T00:00:02.339Z,1853.00
2023-07-06T00:01:02.367Z,1852.00
2023-07-06T00:02:02.454Z,1873.00
2023-07-06T00:03:02.461Z,1853.00
2023-07-06T00:04:02.492Z,1852.00
2023-07-06T00:05:02.447Z,1848.00
2023-07-06T00:06:02.468Z,1859.00
2023-07-06T00:07:02.497Z,1846.00
2023-07-06T00:08:02.517Z,1848.00
2023-07-06T00:09:02.538Z,1825.00
2023-07-06T00:10:02.571Z,1853.00
2023-07-06T00:11:02.596Z,1833.00
2023-07-06T00:12:02.616Z,1839.00
2023-07-06T00:13:02.639Z,1841.00
2023-07-06T00:14:02.722Z,1830.00
2023-07-06T00:15:02.694Z,1831.00
2023-07-06T00:16:02.728Z,1840.00
2023-07-06T00:17:02.729Z,1835.00
2023-07-06T00:18:02.814Z,1824.00
2023-07-06T00:19:02.789Z,1848.00
2023-07-06T00:20:02.810Z,1839.00
2023-07-06T00:21:02.822Z,1827.00
2023-07-06T00:22:02.832Z,1813.00
2023-07-06T00:23:02.862Z,1836.00
2023-07-06T00:24:02.879Z,1827.00
2023-07-06T00:25:02.911Z,1830.00
2023-07-06T00:26:02.935Z,1808.00
2023-07-06T00:27:02.958Z,1831.00
2023-07-06T00:28:02.981Z,1811.00
2023-07-06T00:29:02.999Z,1820.00
2023-07-06T00:30:03.034Z,1816.00
2023-07-06T00:31:03.045Z,1819.00
2023-07-06T00:32:03.088Z,1806.00
2023-07-06T00:33:03.097Z,1812.00
2023-07-06T00:34:03.106Z,1804.00
2023-07-06T00:35:03.129Z,1806.00
2023-07-06T00:36:03.145Z,1797.00
2023-07-06T00:37:03.179Z,1805.00
2023-07-06T00:38:03.176Z,1798.00
2023-07-06T00:39:03.215Z,1803.00
2023-07-06T00:40:03.228Z,1792.00
2023-07-06T00:41:03.248Z,1788.00
2023-07-06T00:42:03.268Z,1801.00
2023-07-06T00:43:03.291Z,1781.00
2023-07-06T00:44:03.310Z,1784.00
2023-07-06T00:45:03.328Z,1794.00
2023-07-06T00:46:03.369Z,1789.00
2023-07-06T00:47:03.366Z,1763.00
2023-07-06T00:48:03.428Z,1803.00
2023-07-06T00:49:03.412Z,1767.00
2023-07-06T00:50:03.449Z,1778.00
2023-07-06T00:51:03.466Z,1776.00
2023-07-06T00:52:03.487Z,1784.00
2023-07-06T00:53:03.524Z,1769.00
2023-07-06T00:54:03.528Z,1775.00
2023-07-06T00:55:03.559Z,1779.00
2023-07-06T00:56:03.579Z,1767.00
2023-07-06T00:57:03.605Z,1778.00
2023-07-06T00:58:03.657Z,1763.00
2023-07-06T00:59:03.682Z,1785.00
2023-07-06T01:00:03.686Z,1756.00
2023-07-06T01:01:03.707Z,1756.00
2023-07-06T01:02:04.656Z,1757.00
2023-07-06T01:03:03.760Z,1762.00
2023-07-06T01:04:03.769Z,1759.00
2023-07-06T01:05:03.817Z,1761.00
2023-07-06T01:06:03.859Z,1750.00
2023-07-06T01:07:03.905Z,1764.00
2023-07-06T01:08:03.914Z,1759.00
2023-07-06T01:09:03.979Z,1756.00
2023-07-06T01:10:04.035Z,1759.00
2023-07-06T01:11:03.983Z,1757.00
2023-07-06T01:12:04.205Z,1735.00
2023-07-06T01:13:04.045Z,1749.00
2023-07-06T01:14:04.129Z,1749.00
2023-07-06T01:15:04.139Z,1753.00
2023-07-06T01:16:04.167Z,1739.00
2023-07-06T01:17:04.154Z,1744.00
2023-07-06T01:18:04.204Z,1738.00
2023-07-06T01:19:04.249Z,1748.00
2023-07-06T01:20:04.286Z,1735.00
2023-07-06T01:21:04.307Z,1731.00
2023-07-06T01:22:04.306Z,1750.00
2023-07-06T01:23:04.381Z,1736.00
2023-07-06T01:24:04.380Z,1738.00
2023-07-06T01:25:04.404Z,1723.00
2023-07-06T01:26:04.425Z,1724.00
2023-07-06T01:27:04.423Z,1741.00
2023-07-06T01:28:04.425Z,1731.00
2023-07-06T01:29:04.521Z,1719.00
2023-07-06T01:30:04.421Z,1707.00
2023-07-06T01:31:04.417Z,1725.00
2023-07-06T01:32:04.397Z,1722.00
2023-07-06T01:33:04.443Z,1714.00
2023-07-06T01:34:04.490Z,1719.00
2023-07-06T01:35:04.499Z,1720.00
2023-07-06T01:36:04.533Z,1726.00
2023-07-06T01:37:04.579Z,1704.00
2023-07-06T01:38:04.599Z,1705.00
2023-07-06T01:39:04.624Z,1711.00
2023-07-06T01:40:04.651Z,1714.00
2023-07-06T01:41:04.668Z,1712.00
2023-07-06T01:42:04.676Z,1709.00
2023-07-06T01:43:04.674Z,1694.00
2023-07-06T01:44:04.660Z,1700.00
2023-07-06T01:45:04.658Z,1700.00
2023-07-06T01:46:04.696Z,1700.00
2023-07-06T01:47:04.734Z,1700.00
2023-07-06T01:48:04.746Z,1713.00
2023-07-06T01:49:04.740Z,1697.00
2023-07-06T01:50:04.762Z,1687.00
2023-07-06T01:51:04.755Z,1693.00
2023-07-06T01:52:04.826Z,1688.00
2023-07-06T01:53:04.827Z,1684.00
2023-07-06T01:54:04.882Z,1687.00
2023-07-06T01:55:04.881Z,1683.00
2023-07-06T01:56:04.900Z,1688.00
2023-07-06T01:57:04.937Z,1686.00
2023-07-06T01:58:04.951Z,1685.00
2023-07-06T01:59:04.959Z,1676.00
2023-07-06T02:00:04.957Z,1679.00
2023-07-06T02:01:05.024Z,1681.00
2023-07-06T02:02:05.012Z,1669.00
2023-07-06T02:03:05.020Z,1684.00
2023-07-06T02:04:04.988Z,1666.00
2023-07-06T02:05:05.001Z,1682.00
2023-07-06T02:06:05.008Z,1686.00
2023-07-06T02:07:05.027Z,1672.00
2023-07-06T02:08:05.051Z,1668.00
2023-07-06T02:09:05.060Z,1669.00
2023-07-06T02:10:05.018Z,1663.00
2023-07-06T02:11:05.015Z,1648.00
2023-07-06T02:12:05.006Z,1656.00
2023-07-06T02:13:05.030Z,1673.00
2023-07-06T02:14:05.078Z,1673.00
2023-07-06T02:15:05.079Z,1639.00
2023-07-06T02:16:05.074Z,1655.00
2023-07-06T02:17:05.106Z,1655.00
2023-07-06T02:18:05.114Z,1655.00
2023-07-06T02:19:05.190Z,1654.00
2023-07-06T02:20:05.203Z,1646.00
2023-07-06T02:21:05.266Z,1647.00
2023-07-06T02:22:05.264Z,1658.00
2023-07-06T02:23:05.300Z,1647.00
2023-07-06T02:24:05.338Z,1644.00
2023-07-06T02:25:05.373Z,1661.00
2023-07-06T02:26:05.366Z,1643.00
2023-07-06T02:27:05.386Z,1642.00
2023-07-06T02:28:05.398Z,1634.00
2023-07-06T02:29:05.393Z,1638.00
2023-07-06T02:30:05.402Z,1640.00
2023-07-06T02:31:05.422Z,1648.00
2023-07-06T02:32:05.424Z,1633.00
2023-07-06T02:33:05.393Z,1641.00
2023-07-06T02:34:05.366Z,1624.00
2023-07-06T02:35:05.352Z,1627.00
2023-07-06T02:36:05.328Z,1629.00
2023-07-06T02:37:05.329Z,1632.00
2023-07-06T02:38:05.310Z,1639.00
2023-07-06T02:39:05.330Z,1622.00
2023-07-06T02:40:05.307Z,1626.00
2023-07-06T02:41:05.313Z,1630.00
2023-07-06T02:42:05.285Z,1617.00
2023-07-06T02:43:05.384Z,1620.00
2023-07-06T02:44:05.341Z,1604.00
2023-07-06T02:45:05.360Z,1608.00
2023-07-06T02:46:05.386Z,1607.00
2023-07-06T02:47:05.271Z,1599.00
2023-07-06T02:48:05.376Z,1612.00
2023-07-06T02:49:05.285Z,1610.00
2023-07-06T02:50:05.271Z,1603.00
2023-07-06T02:51:05.240Z,1599.00
2023-07-06T02:52:05.217Z,1597.00
2023-07-06T02:53:05.194Z,1605.00
2023-07-06T02:54:05.182Z,1620.00
2023-07-06T02:55:05.168Z,1604.00
2023-07-06T02:56:05.179Z,1603.00
2023-07-06T02:57:05.191Z,1608.00
2023-07-06T02:58:05.232Z,1613.00
2023-07-06T02:59:05.192Z,1592.00
2023-07-06T03:00:05.213Z,1594.00
2023-07-06T03:01:05.244Z,1585.00
2023-07-06T03:02:05.246Z,1614.00
2023-07-06T03:03:05.225Z,1583.00
2023-07-06T03:04:05.237Z,1588.00
2023-07-06T03:05:05.306Z,1601.00
2023-07-06T03:06:05.235Z,1591.00
2023-07-06T03:07:05.253Z,1586.00
2023-07-06T03:08:05.198Z,1575.00
2023-07-06T03:09:05.176Z,1590.00
2023-07-06T03:10:05.182Z,1572.00
2023-07-06T03:11:05.211Z,1587.00
2023-07-06T03:12:05.200Z,1573.00
2023-07-06T03:13:05.185Z,1578.00
2023-07-06T03:14:05.224Z,1580.00
2023-07-06T03:15:05.321Z,1572.00
2023-07-06T03:16:05.208Z,1572.00
2023-07-06T03:17:05.192Z,1568.00
2023-07-06T03:18:05.162Z,1571.00
2023-07-06T03:19:05.130Z,1583.00
2023-07-06T03:20:05.100Z,1562.00
2023-07-06T03:21:05.090Z,1572.00
2023-07-06T03:22:05.075Z,1563.00
2023-07-06T03:23:05.053Z,1566.00
2023-07-06T03:24:05.029Z,1555.00
2023-07-06T03:25:05.086Z,1569.00
2023-07-06T03:26:04.963Z,1557.00
2023-07-06T03:27:04.971Z,1559.00
2023-07-06T03:28:04.919Z,1553.00
2023-07-06T03:29:04.927Z,1562.00
2023-07-06T03:30:04.894Z,1559.00
2023-07-06T03:31:04.864Z,1558.00
2023-07-06T03:32:04.881Z,1547.00
2023-07-06T03:33:04.878Z,1550.00
2023-07-06T03:34:04.809Z,1549.00
2023-07-06T03:35:04.795Z,1552.00
2023-07-06T03:36:04.761Z,1543.00
2023-07-06T03:37:04.737Z,1556.00
2023-07-06T03:38:04.712Z,1537.00
2023-07-06T03:39:04.702Z,1548.00
2023-07-06T03:40:04.711Z,1553.00
2023-07-06T03:41:04.699Z,1537.00
2023-07-06T03:42:04.685Z,1550.00
2023-07-06T03:43:04.676Z,1532.00
2023-07-06T03:44:04.647Z,1537.00
2023-07-06T03:45:04.637Z,1525.00
2023-07-06T03:46:04.711Z,1537.00
2023-07-06T03:47:04.605Z,1545.00
2023-07-06T03:48:04.590Z,1524.00
2023-07-06T03:49:04.751Z,1524.00
2023-07-06T03:50:04.569Z,1528.00
2023-07-06T03:51:04.552Z,1533.00
2023-07-06T03:52:04.532Z,1531.00
2023-07-06T03:53:04.522Z,1524.00
2023-07-06T03:54:04.500Z,1527.00
2023-07-06T03:55:04.482Z,1512.00
2023-07-06T03:56:04.475Z,1529.00
2023-07-06T03:57:04.470Z,1531.00
2023-07-06T03:58:06.017Z,1504.00
2023-07-06T03:59:04.469Z,1508.00
2023-07-06T04:00:04.435Z,1523.00
2023-07-06T04:01:04.482Z,1521.00
2023-07-06T04:02:04.406Z,1533.00
2023-07-06T04:03:04.527Z,1517.00
2023-07-06T04:04:04.452Z,1509.00
2023-07-06T04:05:04.350Z,1495.00
2023-07-06T04:06:04.450Z,1518.00
2023-07-06T04:07:04.322Z,1508.00
2023-07-06T04:08:04.312Z,1506.00
2023-07-06T04:09:04.329Z,1509.00
2023-07-06T04:10:04.355Z,1529.00
2023-07-06T04:11:04.300Z,1500.00
2023-07-06T04:12:04.272Z,1504.00
2023-07-06T04:13:04.268Z,1486.00
2023-07-06T04:14:04.298Z,1502.00
2023-07-06T04:15:04.247Z,1485.00
2023-07-06T04:16:04.306Z,1494.00
2023-07-06T04:17:04.218Z,1493.00
2023-07-06T04:18:04.241Z,1503.00
2023-07-06T04:19:04.266Z,1499.00
2023-07-06T04:20:04.191Z,1489.00
2023-07-06T04:21:04.164Z,1486.00
2023-07-06T04:22:04.149Z,1484.00
2023-07-06T04:23:04.362Z,1478.00
2023-07-06T04:24:04.104Z,1485.00
2023-07-06T04:25:04.096Z,1504.00
2023-07-06T04:26:04.073Z,1489.00
2023-07-06T04:27:04.062Z,1485.00
2023-07-06T04:28:04.127Z,1482.00
2023-07-06T04:29:04.014Z,1475.00
2023-07-06T04:30:03.976Z,1484.00
2023-07-06T04:31:04.074Z,1467.00
2023-07-06T04:32:03.954Z,1483.00
2023-07-06T04:33:03.949Z,1485.00
2023-07-06T04:34:03.904Z,1472.00
2023-07-06T04:35:03.854Z,1466.00
2023-07-06T04:36:03.877Z,1488.00
2023-07-06T04:37:03.827Z,1463.00
2023-07-06T04:38:03.829Z,1472.00
2023-07-06T04:39:03.817Z,1458.00
2023-07-06T04:40:03.804Z,1458.00
2023-07-06T04:41:03.795Z,1479.00
2023-07-06T04:42:03.835Z,1476.00
2023-07-06T04:43:03.803Z,1450.00
2023-07-06T04:44:03.785Z,1457.00
2023-07-06T04:45:03.766Z,1454.00
2023-07-06T04:46:03.743Z,1459.00
2023-07-06T04:47:03.804Z,1461.00
2023-07-06T04:48:03.772Z,1463.00
2023-07-06T04:49:03.788Z,1450.00
2023-07-06T04:50:03.754Z,1452.00
2023-07-06T04:51:03.742Z,1462.00
2023-07-06T04:52:03.733Z,1455.00
2023-07-06T04:53:03.754Z,1441.00
2023-07-06T04:54:03.735Z,1442.00
2023-07-06T04:55:03.718Z,1439.00
2023-07-06T04:56:03.704Z,1460.00
2023-07-06T04:57:03.719Z,1445.00
2023-07-06T04:58:03.738Z,1448.00
2023-07-06T04:59:03.727Z,1454.00
2023-07-06T05:00:03.694Z,1445.00
2023-07-06T05:01:03.754Z,1433.00
2023-07-06T05:02:03.724Z,1447.00
2023-07-06T05:03:03.842Z,1455.00
2023-07-06T05:04:03.917Z,1464.00
2023-07-06T05:05:03.732Z,1453.00
2023-07-06T05:06:03.706Z,1428.00
2023-07-06T05:07:03.699Z,1429.00
2023-07-06T05:08:03.703Z,1432.00
2023-07-06T05:09:03.678Z,1457.00
2023-07-06T05:10:03.653Z,1432.00
2023-07-06T05:11:03.607Z,1437.00
2023-07-06T05:12:03.586Z,1433.00
2023-07-06T05:13:03.568Z,1423.00
2023-07-06T05:14:03.629Z,1437.00
2023-07-06T05:15:03.512Z,1431.00
2023-07-06T05:16:03.492Z,1422.00
2023-07-06T05:17:03.547Z,1425.00
2023-07-06T05:18:03.546Z,1418.00
2023-07-06T05:19:03.436Z,1419.00
2023-07-06T05:20:03.388Z,1434.00
2023-07-06T05:21:03.386Z,1427.00
2023-07-06T05:22:03.382Z,1417.00
2023-07-06T05:23:03.401Z,1406.00
2023-07-06T05:24:03.431Z,1430.00
2023-07-06T05:25:03.739Z,1414.00
2023-07-06T05:26:03.416Z,1412.00
2023-07-06T05:27:03.404Z,1409.00
2023-07-06T05:28:03.388Z,1406.00
2023-07-06T05:29:03.361Z,1413.00
2023-07-06T05:30:03.352Z,1410.00
2023-07-06T05:31:03.569Z,1402.00
2023-07-06T05:32:03.391Z,1407.00
2023-07-06T05:33:03.407Z,1400.00
2023-07-06T05:34:03.430Z,1407.00
2023-07-06T05:35:03.434Z,1405.00
2023-07-06T05:36:03.468Z,1417.00
2023-07-06T05:37:03.438Z,1417.00
2023-07-06T05:38:03.418Z,1418.00
2023-07-06T05:39:03.410Z,1418.00
2023-07-06T05:40:03.379Z,1418.00
2023-07-06T05:41:03.372Z,1405.00
2023-07-06T05:42:03.310Z,1418.00
2023-07-06T05:43:03.279Z,1408.00
2023-07-06T05:44:03.261Z,1408.00
2023-07-06T05:45:03.262Z,1413.00
2023-07-06T05:46:03.248Z,1410.00
2023-07-06T05:47:03.223Z,1401.00
2023-07-06T05:48:03.263Z,1404.00
2023-07-06T05:49:03.196Z,1391.00
2023-07-06T05:50:03.229Z,1406.00
2023-07-06T05:51:03.182Z,1386.00
2023-07-06T05:52:03.135Z,1406.00
2023-07-06T05:53:03.155Z,1386.00
2023-07-06T05:54:05.272Z,1384.00
2023-07-06T05:55:03.093Z,1396.00
2023-07-06T05:56:03.089Z,1389.00
2023-07-06T05:57:03.092Z,1373.00
2023-07-06T05:58:03.121Z,1407.00
2023-07-06T05:59:03.151Z,1376.00
2023-07-06T06:00:03.167Z,1377.00
2023-07-06T06:01:03.142Z,1377.00
2023-07-06T06:02:03.138Z,1376.00
2023-07-06T06:03:03.168Z,1375.00
2023-07-06T06:04:03.132Z,1375.00
2023-07-06T06:05:03.054Z,1381.00
2023-07-06T06:06:03.024Z,1368.00
2023-07-06T06:07:03.030Z,1362.00
2023-07-06T06:08:02.997Z,1372.00
2023-07-06T06:09:03.000Z,1357.00
2023-07-06T06:10:02.972Z,1369.00
2023-07-06T06:11:02.950Z,1364.00
2023-07-06T06:12:02.925Z,1359.00
2023-07-06T06:13:02.919Z,1356.00
2023-07-06T06:14:03.068Z,1355.00
2023-07-06T06:15:02.889Z,1357.00
2023-07-06T06:16:02.919Z,1349.00
2023-07-06T06:17:02.973Z,1360.00
2023-07-06T06:18:02.963Z,1353.00
2023-07-06T06:19:02.953Z,1355.00
2023-07-06T06:20:02.985Z,1354.00
2023-07-06T06:21:03.011Z,1334.00
2023-07-06T06:22:03.045Z,1354.00
2023-07-06T06:23:03.086Z,1317.00
2023-07-06T06:24:03.116Z,1330.00
2023-07-06T06:25:03.156Z,1322.00
2023-07-06T06:26:03.204Z,1329.00
2023-07-06T06:27:03.229Z,1342.00
2023-07-06T06:28:03.262Z,1334.00
2023-07-06T06:29:03.313Z,1309.00
2023-07-06T06:30:03.341Z,1314.00
2023-07-06T06:31:03.375Z,1330.00
2023-07-06T06:32:03.455Z,1311.00
2023-07-06T06:33:03.491Z,1323.00
2023-07-06T06:34:03.459Z,1320.00
2023-07-06T06:35:03.455Z,1292.00
2023-07-06T06:36:03.455Z,1319.00
2023-07-06T06:37:03.424Z,1305.00
2023-07-06T06:38:03.418Z,1304.00
2023-07-06T06:39:03.443Z,1307.00
2023-07-06T06:40:03.441Z,1289.00
2023-07-06T06:41:03.399Z,1314.00
2023-07-06T06:42:03.384Z,1322.00
2023-07-06T06:43:03.402Z,1311.00
2023-07-06T06:44:03.424Z,1311.00
2023-07-06T06:45:03.437Z,1311.00
2023-07-06T06:46:03.427Z,1292.00
2023-07-06T06:47:04.583Z,1270.00
2023-07-06T06:48:03.494Z,1284.00
2023-07-06T06:49:03.412Z,1254.00
2023-07-06T06:50:03.447Z,1249.00
2023-07-06T06:51:03.431Z,1294.00
2023-07-06T06:52:03.429Z,1262.00
2023-07-06T06:53:04.268Z,1276.00
2023-07-06T06:54:03.431Z,1281.00
2023-07-06T06:55:03.448Z,1290.00
2023-07-06T06:56:03.449Z,1248.00
2023-07-06T06:57:03.492Z,1274.00
2023-07-06T06:58:03.524Z,1257.00
2023-07-06T06:59:03.553Z,1264.00
2023-07-06T07:00:03.550Z,1248.00
2023-07-06T07:01:03.519Z,1264.00
2023-07-06T07:02:04.422Z,1273.00
2023-07-06T07:03:03.516Z,1255.00
2023-07-06T07:04:03.525Z,1261.00
2023-07-06T07:05:03.487Z,1232.00
2023-07-06T07:06:03.509Z,1243.00
2023-07-06T07:07:03.543Z,1250.00
2023-07-06T07:08:03.562Z,1245.00
2023-07-06T07:09:03.557Z,1249.00
2023-07-06T07:10:03.590Z,1226.00
2023-07-06T07:11:14.273Z,1253.00
2023-07-06T07:12:04.598Z,1254.00
2023-07-06T07:13:03.578Z,1257.00
2023-07-06T07:14:03.642Z,1255.00
2023-07-06T07:15:03.603Z,1255.00
2023-07-06T07:16:03.615Z,1232.00
2023-07-06T07:17:03.532Z,1230.00
2023-07-06T07:18:03.599Z,1231.00
2023-07-06T07:19:03.476Z,1234.00
2023-07-06T07:20:03.456Z,1244.00
2023-07-06T07:21:03.433Z,1239.00
2023-07-06T07:22:03.404Z,1227.00
2023-07-06T07:23:03.394Z,1231.00
2023-07-06T07:24:03.376Z,1228.00
2023-07-06T07:25:03.353Z,1221.00
2023-07-06T07:26:03.338Z,1220.00
2023-07-06T07:27:03.322Z,1237.00
2023-07-06T07:28:03.300Z,1230.00
2023-07-06T07:29:03.286Z,1212.00
2023-07-06T07:30:03.275Z,1232.00
2023-07-06T07:31:03.290Z,1228.00
2023-07-06T07:32:03.285Z,1206.00
2023-07-06T07:33:03.320Z,1217.00
2023-07-06T07:34:03.331Z,1238.00
2023-07-06T07:35:03.326Z,1212.00
2023-07-06T07:36:03.348Z,1218.00
2023-07-06T07:37:03.348Z,1200.00
2023-07-06T07:38:03.373Z,1228.00
2023-07-06T07:39:03.388Z,1230.00
2023-07-06T07:40:03.396Z,1202.00
2023-07-06T07:41:03.367Z,1210.00
2023-07-06T07:42:03.352Z,1199.00
2023-07-06T07:43:03.357Z,1205.00
2023-07-06T07:44:03.331Z,1214.00
2023-07-06T07:45:03.332Z,1205.00
2023-07-06T07:46:03.376Z,1186.00
2023-07-06T07:47:03.309Z,1194.00
2023-07-06T07:48:03.350Z,1207.00
2023-07-06T07:49:03.329Z,1203.00
2023-07-06T07:50:03.317Z,1192.00
2023-07-06T07:51:03.292Z,1191.00
2023-07-06T07:52:03.347Z,1195.00
2023-07-06T07:53:03.257Z,1208.00
2023-07-06T07:54:03.237Z,1195.00
2023-07-06T07:55:03.209Z,1180.00
2023-07-06T07:56:03.181Z,1195.00
2023-07-06T07:57:03.172Z,1190.00
2023-07-06T07:58:03.155Z,1189.00
2023-07-06T07:59:03.155Z,1195.00
2023-07-06T08:00:03.110Z,1199.00
2023-07-06T08:01:03.219Z,1182.00
2023-07-06T08:02:03.137Z,1190.00
2023-07-06T08:03:03.253Z,1198.00
2023-07-06T08:04:03.108Z,1187.00
2023-07-06T08:05:03.060Z,1161.00
2023-07-06T08:06:02.983Z,1188.00
2023-07-06T08:07:03.017Z,1180.00
2023-07-06T08:08:03.040Z,1170.00
2023-07-06T08:09:03.024Z,1185.00
2023-07-06T08:10:03.097Z,1186.00
2023-07-06T08:11:03.108Z,1181.00
2023-07-06T08:12:03.132Z,1185.00
2023-07-06T08:13:03.141Z,1169.00
2023-07-06T08:14:03.204Z,1191.00
2023-07-06T08:15:03.143Z,1170.00
2023-07-06T08:16:03.177Z,1183.00
2023-07-06T08:17:03.176Z,1168.00
2023-07-06T08:18:03.180Z,1167.00
2023-07-06T08:19:12.924Z,1181.00
2023-07-06T08:20:40.519Z,1181.00
2023-07-06T08:21:40.311Z,1183.00
2023-07-06T08:23:03.045Z,1185.00
2023-07-06T08:24:03.037Z,1194.00
2023-07-06T08:25:03.059Z,1206.00
2023-07-06T08:26:02.996Z,1209.00
2023-07-06T08:27:02.974Z,1205.00
2023-07-06T08:28:02.975Z,1203.00
2023-07-06T08:29:02.945Z,1196.00
2023-07-06T08:30:02.910Z,1172.00
2023-07-06T08:31:02.905Z,1164.00
2023-07-06T08:32:02.858Z,1182.00
2023-07-06T08:33:02.878Z,1177.00
2023-07-06T08:34:02.813Z,1164.00
2023-07-06T08:35:02.794Z,1162.00
2023-07-06T08:36:02.765Z,1148.00
2023-07-06T08:37:02.735Z,1175.00
2023-07-06T08:38:02.724Z,1172.00
2023-07-06T08:39:02.708Z,1174.00
2023-07-06T08:40:02.721Z,1177.00
2023-07-06T08:41:02.677Z,1164.00
2023-07-06T08:42:02.661Z,1156.00
2023-07-06T08:43:02.665Z,1152.00
2023-07-06T08:44:02.628Z,1160.00
2023-07-06T08:45:02.649Z,1166.00
2023-07-06T08:46:02.597Z,1163.00
2023-07-06T08:47:02.642Z,1149.00
2023-07-06T08:48:02.594Z,1160.00
2023-07-06T08:49:02.541Z,1155.00
2023-07-06T08:50:02.530Z,1157.00
2023-07-06T08:51:02.512Z,1165.00
2023-07-06T08:52:02.489Z,1143.00
2023-07-06T08:53:02.477Z,1145.00
2023-07-06T08:54:02.458Z,1162.00
2023-07-06T08:55:02.450Z,1138.00
2023-07-06T08:56:02.449Z,1158.00
2023-07-06T08:57:02.405Z,1151.00
2023-07-06T08:58:02.397Z,1141.00
2023-07-06T08:59:02.424Z,1151.00
2023-07-06T09:00:02.368Z,1146.00
2023-07-06T09:01:02.396Z,1176.00
2023-07-06T09:02:02.353Z,1157.00
2023-07-06T09:03:02.420Z,1154.00
2023-07-06T09:04:02.365Z,1134.00
2023-07-06T09:05:02.296Z,1143.00
2023-07-06T09:06:02.281Z,1146.00
2023-07-06T09:07:02.268Z,1148.00
2023-07-06T09:08:02.275Z,1141.00
2023-07-06T09:09:02.249Z,1142.00
2023-07-06T09:10:17.955Z,1127.00
2023-07-06T09:11:16.806Z,1128.00
2023-07-06T09:12:03.243Z,1130.00
2023-07-06T09:13:02.225Z,1135.00
2023-07-06T09:14:02.269Z,1141.00
2023-07-06T09:15:02.190Z,1145.00
2023-07-06T09:16:02.156Z,1141.00
2023-07-06T09:17:02.163Z,1160.00
2023-07-06T09:18:02.131Z,1120.00
2023-07-06T09:19:02.101Z,1143.00
2023-07-06T09:20:02.086Z,1124.00
2023-07-06T09:21:02.075Z,1127.00
2023-07-06T09:22:02.064Z,1130.00
2023-07-06T09:23:02.029Z,1136.00
2023-07-06T09:24:02.021Z,1140.00
2023-07-06T09:25:01.983Z,1123.00
2023-07-06T09:26:01.972Z,1121.00
2023-07-06T09:27:02.167Z,1117.00
2023-07-06T09:28:01.926Z,1120.00
2023-07-06T09:29:01.900Z,1116.00
2023-07-06T09:30:02.249Z,1102.00
2023-07-06T09:31:01.886Z,1117.00
2023-07-06T09:32:01.857Z,1113.00
2023-07-06T09:33:01.903Z,1119.00
2023-07-06T09:34:01.833Z,1109.00
2023-07-06T09:35:01.808Z,1114.00
2023-07-06T09:36:02.038Z,1108.00
2023-07-06T09:37:01.768Z,1117.00
2023-07-06T09:38:01.773Z,1111.00
2023-07-06T09:39:01.726Z,1107.00
2023-07-06T09:40:01.747Z,1095.00
2023-07-06T09:41:01.694Z,1104.00
2023-07-06T09:42:01.671Z,1120.00
2023-07-06T09:43:01.652Z,1112.00
2023-07-06T09:44:01.774Z,1120.00
2023-07-06T09:45:01.632Z,1117.00
2023-07-06T09:46:02.618Z,1098.00
2023-07-06T09:47:01.617Z,1096.00
2023-07-06T09:48:01.609Z,1110.00
2023-07-06T09:49:01.521Z,1098.00
2023-07-06T09:50:01.503Z,1100.00
2023-07-06T09:51:01.493Z,1102.00
2023-07-06T09:52:01.496Z,1119.00
2023-07-06T09:53:01.447Z,1111.00
2023-07-06T09:54:01.458Z,1097.00
2023-07-06T09:55:01.475Z,1097.00
2023-07-06T09:56:01.376Z,1099.00
2023-07-06T09:57:01.377Z,1095.00
2023-07-06T09:58:01.344Z,1099.00
2023-07-06T09:59:01.342Z,1098.00
2023-07-06T10:00:01.307Z,1101.00
2023-07-06T10:01:01.282Z,1110.00
2023-07-06T10:02:01.301Z,1115.00
2023-07-06T10:03:01.279Z,1103.00
2023-07-06T10:04:01.215Z,1102.00
2023-07-06T10:05:01.231Z,1094.00
2023-07-06T10:06:01.170Z,1102.00
2023-07-06T10:07:01.172Z,1103.00
2023-07-06T10:08:01.117Z,1108.00
2023-07-06T10:09:01.101Z,1100.00
2023-07-06T10:10:01.076Z,1116.00
2023-07-06T10:11:01.101Z,1083.00
2023-07-06T10:12:01.028Z,1097.00
2023-07-06T10:13:01.017Z,1113.00
2023-07-06T10:14:01.072Z,1087.00
2023-07-06T10:15:00.977Z,1094.00
2023-07-06T10:16:00.935Z,1094.00
2023-07-06T10:17:00.933Z,1113.00
2023-07-06T10:18:00.944Z,1089.00
2023-07-06T10:19:00.975Z,1109.00
2023-07-06T10:20:00.939Z,1101.00
2023-07-06T10:21:00.925Z,1098.00
2023-07-06T10:22:00.962Z,1100.00
2023-07-06T10:23:00.988Z,1091.00
2023-07-06T10:24:01.029Z,1093.00
2023-07-06T10:25:01.040Z,1105.00
2023-07-06T10:26:02.139Z,1082.00
2023-07-06T10:27:01.115Z,1086.00
2023-07-06T10:28:01.171Z,1098.00
2023-07-06T10:29:01.164Z,1097.00
2023-07-06T10:30:01.193Z,1088.00
2023-07-06T10:31:01.233Z,1096.00
2023-07-06T10:32:01.284Z,1082.00
2023-07-06T10:33:01.304Z,1071.00
2023-07-06T10:34:01.299Z,1088.00
2023-07-06T10:35:01.340Z,1090.00
2023-07-06T10:36:01.372Z,1099.00
2023-07-06T10:37:01.393Z,1074.00
2023-07-06T10:38:01.418Z,1085.00
2023-07-06T10:39:01.446Z,1078.00
2023-07-06T10:40:01.482Z,1091.00
2023-07-06T10:41:01.502Z,1066.00
2023-07-06T10:42:01.536Z,1086.00
2023-07-06T10:43:01.549Z,1072.00
2023-07-06T10:44:01.592Z,1071.00
2023-07-06T10:45:01.637Z,1065.00
2023-07-06T10:46:01.742Z,1060.00
2023-07-06T10:47:01.675Z,1066.00
2023-07-06T10:48:01.747Z,1057.00
2023-07-06T10:49:01.738Z,1075.00
2023-07-06T10:50:01.776Z,1077.00
2023-07-06T10:51:01.813Z,1062.00
2023-07-06T10:52:01.815Z,1055.00
2023-07-06T10:53:01.854Z,1072.00
2023-07-06T10:54:01.891Z,1104.00
2023-07-06T10:55:01.909Z,1048.00
2023-07-06T10:56:01.928Z,1064.00
2023-07-06T10:57:01.966Z,1067.00
2023-07-06T10:58:01.978Z,1054.00
2023-07-06T10:59:01.989Z,1050.00
2023-07-06T11:00:02.016Z,1054.00
2023-07-06T11:01:02.075Z,1045.00
2023-07-06T11:02:02.049Z,1058.00
2023-07-06T11:03:02.125Z,1050.00
2023-07-06T11:04:02.361Z,1049.00
2023-07-06T11:05:02.109Z,1064.00
2023-07-06T11:06:02.119Z,1055.00
2023-07-06T11:07:02.160Z,1037.00
2023-07-06T11:08:02.182Z,1049.00
2023-07-06T11:09:02.202Z,1044.00
2023-07-06T11:10:02.251Z,1038.00
2023-07-06T11:11:02.290Z,1062.00
2023-07-06T11:12:02.290Z,1047.00
2023-07-06T11:13:02.294Z,1040.00
2023-07-06T11:14:02.344Z,1051.00
2023-07-06T11:15:02.311Z,1037.00
2023-07-06T11:16:05.267Z,1035.00
2023-07-06T11:17:02.239Z,1036.00
2023-07-06T11:18:02.319Z,1037.00
2023-07-06T11:19:02.209Z,1036.00
2023-07-06T11:20:02.200Z,1032.00
2023-07-06T11:21:02.169Z,1034.00
2023-07-06T11:22:02.146Z,1028.00
2023-07-06T11:23:02.322Z,1027.00
2023-07-06T11:24:02.103Z,1022.00
2023-07-06T11:25:02.070Z,1029.00
2023-07-06T11:26:02.060Z,1048.00
2023-07-06T11:27:02.034Z,1031.00
2023-07-06T11:28:02.013Z,1023.00
2023-07-06T11:29:01.995Z,1012.00
2023-07-06T11:30:01.965Z,1045.00
2023-07-06T11:31:01.952Z,1030.00
2023-07-06T11:32:01.911Z,1011.00
2023-07-06T11:33:01.939Z,1014.00
2023-07-06T11:34:01.867Z,1011.00
2023-07-06T11:35:01.849Z,1026.00
2023-07-06T11:36:01.832Z,1014.00
2023-07-06T11:37:01.805Z,1036.00
2023-07-06T11:38:01.791Z,1005.00
2023-07-06T11:39:01.809Z,1018.00
2023-07-06T11:40:01.743Z,1012.00
2023-07-06T11:41:01.748Z,1023.00
2023-07-06T11:42:01.720Z,1013.00
2023-07-06T11:43:01.685Z,1011.00
2023-07-06T11:44:01.670Z,1021.00
2023-07-06T11:45:01.656Z,1009.00
2023-07-06T11:46:01.598Z,1008.00
2023-07-06T11:47:03.364Z,998.00
2023-07-06T11:48:01.647Z,995.00
2023-07-06T11:49:01.546Z,1004.00
2023-07-06T11:50:01.533Z,999.00
2023-07-06T11:51:01.514Z,1020.00
2023-07-06T11:52:01.508Z,996.00
2023-07-06T11:53:01.480Z,1008.00
2023-07-06T11:54:01.462Z,1002.00
2023-07-06T11:55:01.439Z,1004.00
2023-07-06T11:56:01.436Z,1000.00
2023-07-06T11:57:01.413Z,992.00
2023-07-06T11:58:01.390Z,999.00
2023-07-06T11:59:01.383Z,997.00
2023-07-06T12:00:01.380Z,994.00
2023-07-06T12:01:01.436Z,996.00
2023-07-06T12:02:01.314Z,989.00
2023-07-06T12:03:01.435Z,993.00
2023-07-06T12:04:01.290Z,995.00
2023-07-06T12:05:01.290Z,977.00
2023-07-06T12:06:01.288Z,987.00
2023-07-06T12:07:01.276Z,988.00